Time;durP1;ratioP1;P1;durP2;ratioP2;P2;SDS_P1;SDS_P2;PMS_P1;PMS_P2;Temp;Humidity;BMP_temperature;BMP_pressure;BME280_temperature;BME280_humidity;BME280_pressure;Samples;Min_cycle;Max_cycle;Signal;HPM_P1;HPM_P2
2022/08/28 00:00:03;;;;;;;;;;;;;;;21.77;29.31;97604.69;4917167;29;982;-78
2022/08/28 00:02:32;;;;;;;;;;;;;;;22.12;28.47;97601.09;4898028;29;930;-78
2022/08/28 00:04:57;;;;;;;;;;;;;;;22.05;28.84;97604.97;4898244;29;951;-78
2022/08/28 00:07:24;;;;;;;;;;;;;;;22.04;28.52;97606.22;4898526;29;1016;-79
2022/08/28 00:09:49;;;;;;;;;;;;;;;22.03;28.97;97611.09;4898554;29;974;-79
2022/08/28 00:12:15;;;;;;;;;;;;;;;22.15;28.40;97612.31;4898302;29;1907;-78
2022/08/28 00:14:40;;;;;;;;;;;;;;;22.03;28.77;97610.31;4898344;29;1082;-78
2022/08/28 00:17:05;;;;;;;;;;;;;;;21.91;28.87;97609.06;4898804;29;1024;-78
2022/08/28 00:19:31;;;;;;;;;;;;;;;21.91;28.93;97605.44;4912440;29;1029;-79
2022/08/28 00:21:57;;;;;;;;;;;;;;;22.01;28.57;97619.22;4917206;29;994;-79
2022/08/28 00:24:22;;;;;;;;;;;;;;;22.11;28.50;97625.81;4916741;29;1189;-78
2022/08/28 00:29:31;;;;;;;;;;;;;;;21.93;28.99;97614.28;4897795;29;945;-78
2022/08/28 00:31:57;;;;;;;;;;;;;;;22.00;28.79;97611.22;4902173;29;1919;-78
2022/08/28 00:34:22;;;;;;;;;;;;;;;22.18;28.73;97617.09;4917470;29;929;-78
2022/08/28 00:36:48;;;;;;;;;;;;;;;22.25;28.58;97614.00;4918892;29;948;-79
2022/08/28 00:39:13;;;;;;;;;;;;;;;22.02;28.57;97608.69;4891126;29;937;-77
2022/08/28 00:41:39;;;;;;;;;;;;;;;21.92;28.85;97612.72;4901638;29;1163;-79
2022/08/28 00:44:10;;;;;;;;;;;;;;;22.14;28.57;97610.75;4901810;29;917;-79
2022/08/28 00:46:36;;;;;;;;;;;;;;;22.05;28.89;97602.13;4883092;29;1048;-78
2022/08/28 00:49:02;;;;;;;;;;;;;;;21.70;29.54;97610.56;4883179;29;924;-78
2022/08/28 00:54:11;;;;;;;;;;;;;;;22.03;28.95;97602.59;4883026;29;994;-78
2022/08/28 00:56:37;;;;;;;;;;;;;;;21.70;29.20;97604.91;4867397;29;938;-79
2022/08/28 00:59:10;;;;;;;;;;;;;;;22.12;28.78;97601.91;4867268;29;1142;-79
2022/08/28 01:01:37;;;;;;;;;;;;;;;21.93;29.07;97600.13;4846560;29;1287;-78
2022/08/28 01:04:05;;;;;;;;;;;;;;;21.98;28.68;97599.56;4845683;29;982;-78
2022/08/28 01:06:30;;;;;;;;;;;;;;;21.80;29.14;97598.09;4845549;29;1025;-78
2022/08/28 01:08:56;;;;;;;;;;;;;;;21.90;28.95;97593.31;4846194;29;962;-79
2022/08/28 01:11:22;;;;;;;;;;;;;;;21.98;29.11;97596.72;4850710;29;1915;-79
2022/08/28 01:13:48;;;;;;;;;;;;;;;21.99;28.94;97598.28;4882662;29;964;-78
2022/08/28 01:16:16;;;;;;;;;;;;;;;22.04;28.88;97603.38;4832734;29;906;-79
2022/08/28 01:18:42;;;;;;;;;;;;;;;22.03;28.85;97598.97;4876330;29;947;-79
2022/08/28 01:21:12;;;;;;;;;;;;;;;22.08;28.68;97601.22;4863852;29;979;-78
2022/08/28 01:23:41;;;;;;;;;;;;;;;21.98;29.00;97608.03;4845164;29;1193;-79
2022/08/28 01:26:07;;;;;;;;;;;;;;;21.85;29.06;97603.19;4845011;29;1135;-79
2022/08/28 01:28:32;;;;;;;;;;;;;;;21.89;28.87;97605.13;4845210;29;938;-78
2022/08/28 01:30:58;;;;;;;;;;;;;;;22.08;28.81;97604.06;4845197;29;1016;-78
2022/08/28 01:33:23;;;;;;;;;;;;;;;22.15;28.50;97601.00;4860418;29;1967;-78
2022/08/28 01:35:48;;;;;;;;;;;;;;;22.01;28.79;97607.13;4863877;29;1035;-78
2022/08/28 01:38:14;;;;;;;;;;;;;;;21.82;28.99;97606.16;4863716;29;1046;-78
2022/08/28 01:40:41;;;;;;;;;;;;;;;21.95;28.61;97606.13;4863731;29;1382;-79
2022/08/28 01:43:07;;;;;;;;;;;;;;;21.93;28.73;97602.97;4826711;29;1024;-78
2022/08/28 01:45:35;;;;;;;;;;;;;;;22.01;28.88;97601.44;4826520;29;1009;-78
2022/08/28 01:48:00;;;;;;;;;;;;;;;22.07;28.50;97599.63;4841629;29;1084;-78
2022/08/28 01:50:26;;;;;;;;;;;;;;;21.88;28.60;97609.22;4845142;29;917;-79
2022/08/28 01:52:51;;;;;;;;;;;;;;;22.05;28.67;97605.75;4874690;29;1898;-78
2022/08/28 01:55:17;;;;;;;;;;;;;;;21.72;28.89;97602.44;4882048;29;1027;-78
2022/08/28 01:57:43;;;;;;;;;;;;;;;22.06;28.47;97603.69;4910195;29;1089;-79
2022/08/28 02:00:09;;;;;;;;;;;;;;;21.87;28.81;97593.47;4919591;29;960;-79
2022/08/28 02:02:37;;;;;;;;;;;;;;;21.96;28.91;97599.19;4900752;29;990;-78
2022/08/28 02:05:02;;;;;;;;;;;;;;;22.00;28.76;97599.88;4900650;29;950;-79
2022/08/28 02:07:28;;;;;;;;;;;;;;;22.16;28.26;97590.44;4900270;29;952;-78
2022/08/28 02:09:53;;;;;;;;;;;;;;;21.94;28.78;97596.03;4868994;29;918;-78
2022/08/28 02:12:19;;;;;;;;;;;;;;;21.92;28.86;97598.56;4900257;29;1899;-78
2022/08/28 02:14:45;;;;;;;;;;;;;;;21.82;29.20;97592.78;4929318;29;1003;-78
2022/08/28 02:17:10;;;;;;;;;;;;;;;21.76;29.04;97588.94;4938163;29;958;-78
2022/08/28 02:19:36;;;;;;;;;;;;;;;21.94;28.79;97596.03;4938382;29;908;-78
2022/08/28 02:22:06;;;;;;;;;;;;;;;22.05;28.57;97597.25;4938111;29;1016;-78
2022/08/28 02:24:33;;;;;;;;;;;;;;;21.83;28.92;97590.75;4918664;29;1266;-78
2022/08/28 02:26:58;;;;;;;;;;;;;;;21.69;29.37;97597.66;4881092;29;961;-77
2022/08/28 02:29:25;;;;;;;;;;;;;;;21.78;28.87;97592.09;4881583;29;960;-78
2022/08/28 02:31:51;;;;;;;;;;;;;;;21.97;28.79;97586.63;4895928;29;1984;-79
2022/08/28 02:34:17;;;;;;;;;;;;;;;22.07;28.55;97593.94;4900089;29;956;-78
2022/08/28 02:36:42;;;;;;;;;;;;;;;22.09;28.38;97594.31;4900194;29;1116;-78
2022/08/28 02:39:07;;;;;;;;;;;;;;;22.00;28.53;97599.88;4899687;29;997;-79
2022/08/28 02:41:33;;;;;;;;;;;;;;;21.66;29.22;97598.59;4862468;29;992;-79
2022/08/28 02:43:59;;;;;;;;;;;;;;;21.94;29.00;97593.22;4825906;29;1388;-78
2022/08/28 02:46:25;;;;;;;;;;;;;;;22.08;28.52;97596.34;4825902;29;952;-79
2022/08/28 02:48:50;;;;;;;;;;;;;;;21.89;28.95;97599.44;4847461;29;1135;-77
2022/08/28 02:51:18;;;;;;;;;;;;;;;21.95;28.96;97597.63;4853269;29;1911;-78
2022/08/28 02:53:44;;;;;;;;;;;;;;;21.99;28.67;97610.41;4853090;29;1492;-78
2022/08/28 02:56:10;;;;;;;;;;;;;;;21.85;28.75;97608.84;4822094;29;1271;-79
2022/08/28 02:58:36;;;;;;;;;;;;;;;22.01;28.45;97601.44;4887859;29;1328;-78
2022/08/28 03:01:03;;;;;;;;;;;;;;;21.82;28.85;97611.81;4852782;29;1317;-78
2022/08/28 03:03:30;;;;;;;;;;;;;;;21.95;28.85;97623.13;4852181;29;1411;-78
2022/08/28 03:05:56;;;;;;;;;;;;;;;21.94;28.67;97619.50;4853953;29;1261;-77
2022/08/28 03:08:21;;;;;;;;;;;;;;;21.96;28.85;97624.69;4850633;29;1351;-77
2022/08/28 03:10:46;;;;;;;;;;;;;;;21.89;29.03;97616.44;4850326;29;1325;-78
2022/08/28 03:13:12;;;;;;;;;;;;;;;21.79;29.04;97619.19;4881061;29;1978;-79
2022/08/28 03:15:39;;;;;;;;;;;;;;;21.97;28.58;97620.63;4888011;29;1320;-79
2022/08/28 03:18:05;;;;;;;;;;;;;;;22.01;28.33;97618.44;4888474;29;1252;-77
2022/08/28 03:20:30;;;;;;;;;;;;;;;21.90;28.62;97623.69;4895877;29;1302;-78
2022/08/28 03:25:39;;;;;;;;;;;;;;;21.89;28.66;97622.09;4936575;29;1115;-78
2022/08/28 03:28:05;;;;;;;;;;;;;;;21.84;28.96;97627.09;4936639;29;930;-77
2022/08/28 03:30:30;;;;;;;;;;;;;;;21.90;28.81;97623.69;4904938;29;977;-78
2022/08/28 03:32:56;;;;;;;;;;;;;;;22.03;28.55;97627.31;4989237;28;1989;-77
2022/08/28 03:35:21;;;;;;;;;;;;;;;21.91;28.63;97628.88;4996474;28;1271;-78
2022/08/28 03:37:47;;;;;;;;;;;;;;;21.83;28.76;97631.19;4993764;28;1152;-78
2022/08/28 03:40:13;;;;;;;;;;;;;;;21.94;29.04;97638.53;4996709;28;1211;-78
2022/08/28 03:42:38;;;;;;;;;;;;;;;21.96;28.65;97633.97;4954736;28;2128;-77
2022/08/28 03:45:06;;;;;;;;;;;;;;;22.00;28.70;97634.66;4959132;28;1967;-78
2022/08/28 03:47:34;;;;;;;;;;;;;;;21.76;29.28;97637.09;4974654;28;975;-77
2022/08/28 03:49:59;;;;;;;;;;;;;;;21.73;28.96;97643.66;4975290;28;981;-78
2022/08/28 03:52:25;;;;;;;;;;;;;;;21.90;28.70;97644.31;4973603;28;1887;-78
2022/08/28 03:54:50;;;;;;;;;;;;;;;21.95;28.53;97648.59;4974951;28;1035;-77
2022/08/28 03:57:19;;;;;;;;;;;;;;;21.98;28.88;97642.03;4974985;28;1080;-78
2022/08/28 03:59:48;;;;;;;;;;;;;;;22.05;28.38;97641.78;4974959;28;972;-78
2022/08/28 04:02:13;;;;;;;;;;;;;;;21.90;28.62;97647.13;4886068;29;2118;-78
2022/08/28 04:04:39;;;;;;;;;;;;;;;21.89;28.82;97645.56;4879339;29;1079;-78
2022/08/28 04:07:04;;;;;;;;;;;;;;;21.96;28.81;97653.03;4879843;29;883;-77
2022/08/28 04:09:30;;;;;;;;;;;;;;;21.97;28.57;97651.78;4879772;29;940;-78
2022/08/28 04:11:55;;;;;;;;;;;;;;;22.01;28.50;97652.44;4877915;29;1914;-77
2022/08/28 04:14:20;;;;;;;;;;;;;;;21.84;28.97;97648.97;4879766;29;1022;-77
2022/08/28 04:16:48;;;;;;;;;;;;;;;22.08;28.66;97647.34;4879414;29;1052;-78
2022/08/28 04:19:13;;;;;;;;;;;;;;;22.01;29.00;97641.91;4880917;29;1511;-78
2022/08/28 04:21:39;;;;;;;;;;;;;;;21.89;29.03;97650.44;4890997;29;1555;-78
2022/08/28 04:24:05;;;;;;;;;;;;;;;21.75;28.99;97649.66;4898518;29;1068;-77
2022/08/28 04:26:35;;;;;;;;;;;;;;;21.74;29.14;97655.78;4879299;29;1001;-77
2022/08/28 04:29:00;;;;;;;;;;;;;;;21.77;29.34;97647.16;4878926;29;1508;-78
2022/08/28 04:31:27;;;;;;;;;;;;;;;21.76;29.07;97653.25;4842244;29;1907;-78
2022/08/28 04:33:52;;;;;;;;;;;;;;;21.77;29.18;97661.34;4885109;29;1097;-77
2022/08/28 04:36:18;;;;;;;;;;;;;;;21.83;29.05;97653.84;4898007;29;1507;-79
2022/08/28 04:38:44;;;;;;;;;;;;;;;21.91;28.99;97654.38;4898166;29;1018;-78
2022/08/28 04:41:10;;;;;;;;;;;;;;;21.91;29.03;97647.94;4898403;29;966;-78
2022/08/28 04:43:36;;;;;;;;;;;;;;;22.00;28.85;97651.66;4897897;29;1040;-78
2022/08/28 04:46:05;;;;;;;;;;;;;;;21.88;29.05;97654.53;4896941;29;1655;-78
2022/08/28 04:48:31;;;;;;;;;;;;;;;21.88;29.31;97654.53;4897444;29;1791;-78
2022/08/28 04:50:57;;;;;;;;;;;;;;;22.21;28.86;97655.03;4898024;29;1751;-78
2022/08/28 04:53:23;;;;;;;;;;;;;;;22.09;28.70;97660.25;4897600;29;1903;-77
2022/08/28 04:55:49;;;;;;;;;;;;;;;21.81;29.42;97650.69;4898249;29;937;-76
2022/08/28 04:58:15;;;;;;;;;;;;;;;21.90;29.24;97658.47;4897416;29;988;-78
2022/08/28 05:00:41;;;;;;;;;;;;;;;21.78;28.99;97651.59;4915983;29;1300;-78
2022/08/28 05:03:06;;;;;;;;;;;;;;;21.85;29.03;97654.16;4946553;29;1165;-78
2022/08/28 05:05:33;;;;;;;;;;;;;;;22.09;28.78;97657.41;4954817;29;1050;-77
2022/08/28 05:07:58;;;;;;;;;;;;;;;21.98;28.87;97664.69;4938685;29;1110;-78
2022/08/28 05:10:24;;;;;;;;;;;;;;;21.98;29.01;97667.53;4955091;29;970;-78
2022/08/28 05:12:49;;;;;;;;;;;;;;;21.97;29.38;97663.91;4954689;29;1902;-77
2022/08/28 05:15:15;;;;;;;;;;;;;;;21.78;29.38;97662.13;4954545;29;928;-78
2022/08/28 05:17:41;;;;;;;;;;;;;;;22.00;29.10;97663.00;4954812;29;941;-78
2022/08/28 05:20:06;;;;;;;;;;;;;;;21.83;29.32;97653.84;4954540;29;1005;-78
2022/08/28 05:22:32;;;;;;;;;;;;;;;21.90;29.24;97652.00;4939904;29;986;-77
2022/08/28 05:24:59;;;;;;;;;;;;;;;21.91;29.36;97662.09;4958535;29;1056;-78
2022/08/28 05:27:25;;;;;;;;;;;;;;;22.06;29.04;97657.53;4942378;29;1070;-78
2022/08/28 05:29:52;;;;;;;;;;;;;;;22.17;29.00;97655.16;4989357;28;990;-78
2022/08/28 05:32:18;;;;;;;;;;;;;;;22.06;29.63;97668.88;4998979;28;1910;-78
2022/08/28 05:34:43;;;;;;;;;;;;;;;22.12;29.61;97661.41;4938779;29;1092;-78
2022/08/28 05:37:09;;;;;;;;;;;;;;;22.11;29.32;97651.31;4938696;29;943;-77
2022/08/28 05:39:34;;;;;;;;;;;;;;;21.72;30.28;97663.94;4938690;29;1440;-78
2022/08/28 05:42:00;;;;;;;;;;;;;;;22.13;29.43;97665.06;4938877;29;886;-78
2022/08/28 05:44:25;;;;;;;;;;;;;;;21.88;29.85;97663.81;4937407;29;1027;-78
2022/08/28 05:46:50;;;;;;;;;;;;;;;21.92;29.94;97669.38;4938528;29;1012;-78
2022/08/28 05:49:17;;;;;;;;;;;;;;;22.07;29.48;97671.25;4938750;29;943;-78
2022/08/28 05:51:42;;;;;;;;;;;;;;;22.11;29.47;97674.00;4938401;29;1923;-78
2022/08/28 05:54:08;;;;;;;;;;;;;;;22.14;29.41;97678.75;4929688;29;1593;-78
2022/08/28 05:56:34;;;;;;;;;;;;;;;22.02;29.92;97682.34;4938282;29;1479;-78
2022/08/28 05:58:59;;;;;;;;;;;;;;;21.88;30.08;97674.34;4954376;29;955;-77
2022/08/28 06:01:27;;;;;;;;;;;;;;;21.96;29.91;97678.50;4938360;29;965;-78
2022/08/28 06:03:56;;;;;;;;;;;;;;;21.79;30.09;97678.66;4937589;29;1512;-78
2022/08/28 06:06:23;;;;;;;;;;;;;;;22.06;29.84;97672.50;4984645;28;975;-78
2022/08/28 06:08:50;;;;;;;;;;;;;;;22.18;29.57;97673.75;4998909;28;855;-78
2022/08/28 06:11:18;;;;;;;;;;;;;;;22.11;29.81;97674.00;4981037;28;1906;-78
2022/08/28 06:13:43;;;;;;;;;;;;;;;21.93;30.04;97682.28;4968805;28;1512;-78
2022/08/28 06:16:09;;;;;;;;;;;;;;;21.72;30.59;97667.56;4978965;28;908;-78
2022/08/28 06:18:34;;;;;;;;;;;;;;;22.24;29.76;97671.94;4961832;28;972;-78
2022/08/28 06:21:01;;;;;;;;;;;;;;;22.32;29.58;97672.47;4979417;28;877;-78
2022/08/28 06:23:27;;;;;;;;;;;;;;;22.29;29.81;97679.84;4966135;28;1516;-78
2022/08/28 06:25:52;;;;;;;;;;;;;;;22.01;30.31;97686.44;4976138;28;1094;-77
2022/08/28 06:28:19;;;;;;;;;;;;;;;22.15;30.09;97683.16;4976512;28;930;-78
2022/08/28 06:30:45;;;;;;;;;;;;;;;22.05;30.43;97687.13;4961073;28;1011;-77
2022/08/28 06:33:11;;;;;;;;;;;;;;;22.06;30.66;97688.69;4975146;28;1989;-78
2022/08/28 06:35:43;;;;;;;;;;;;;;;22.02;30.47;97688.03;4959861;28;1322;-79
2022/08/28 06:38:08;;;;;;;;;;;;;;;21.99;30.55;97684.06;4960608;28;1108;-78
2022/08/28 06:40:41;;;;;;;;;;;;;;;22.12;30.34;97694.63;4976667;28;979;-79
2022/08/28 06:43:07;;;;;;;;;;;;;;;21.92;30.76;97694.84;4918260;29;1463;-78
2022/08/28 06:45:32;;;;;;;;;;;;;;;21.95;30.80;97688.25;4900024;29;887;-78
2022/08/28 06:47:58;;;;;;;;;;;;;;;22.28;30.13;97700.94;4900039;29;983;-78
2022/08/28 06:50:23;;;;;;;;;;;;;;;22.35;30.14;97703.53;4884626;29;1012;-78
2022/08/28 06:52:49;;;;;;;;;;;;;;;22.10;30.33;97689.38;4883381;29;1914;-79
2022/08/28 06:55:15;;;;;;;;;;;;;;;22.12;30.25;97698.22;4899869;29;1067;-78
2022/08/28 06:57:40;;;;;;;;;;;;;;;22.18;30.25;97702.09;4934437;29;1001;-77
2022/08/28 07:00:07;;;;;;;;;;;;;;;22.21;30.11;97695.50;4918793;29;962;-78
2022/08/28 07:02:32;;;;;;;;;;;;;;;22.32;30.24;97693.09;4918308;29;1546;-78
2022/08/28 07:04:57;;;;;;;;;;;;;;;22.35;29.93;97695.03;4918838;29;975;-78
2022/08/28 07:07:23;;;;;;;;;;;;;;;22.36;29.86;97688.09;4918640;29;914;-78
2022/08/28 07:09:49;;;;;;;;;;;;;;;21.85;30.65;97679.66;4918561;29;953;-78
2022/08/28 07:12:14;;;;;;;;;;;;;;;22.23;30.19;97693.03;4937113;29;1906;-78
2022/08/28 07:14:40;;;;;;;;;;;;;;;22.07;30.50;97690.28;4979836;28;1674;-78
2022/08/28 07:17:06;;;;;;;;;;;;;;;21.86;30.88;97691.78;4975955;28;986;-78
2022/08/28 07:19:32;;;;;;;;;;;;;;;21.99;30.88;97689.75;4975612;28;971;-78
2022/08/28 07:21:57;;;;;;;;;;;;;;;22.31;30.09;97705.69;4959546;28;1286;-78
2022/08/28 07:24:23;;;;;;;;;;;;;;;22.21;30.36;97701.16;4975570;28;1599;-77
2022/08/28 07:26:48;;;;;;;;;;;;;;;22.22;30.72;97697.09;4975635;28;1650;-78
2022/08/28 07:29:14;;;;;;;;;;;;;;;22.51;30.07;97691.22;4959157;28;1525;-78
2022/08/28 07:31:40;;;;;;;;;;;;;;;22.18;30.60;97698.47;4959186;28;1894;-78
2022/08/28 07:34:05;;;;;;;;;;;;;;;21.96;30.88;97695.50;4989048;28;1712;-78
2022/08/28 07:36:31;;;;;;;;;;;;;;;22.04;30.80;97696.88;4975723;28;914;-78
2022/08/28 07:38:57;;;;;;;;;;;;;;;22.17;30.53;97700.50;4927396;28;1236;-78
2022/08/28 07:41:24;;;;;;;;;;;;;;;22.33;30.24;97699.56;4955816;29;1009;-77
2022/08/28 07:46:33;;;;;;;;;;;;;;;22.38;30.37;97698.19;4955910;28;1008;-78
2022/08/28 07:49:00;;;;;;;;;;;;;;;22.03;30.78;97696.09;4955802;29;951;-78
2022/08/28 07:51:25;;;;;;;;;;;;;;;22.07;30.77;97696.75;4955553;29;1903;-78
2022/08/28 07:53:52;;;;;;;;;;;;;;;22.11;30.74;97702.31;4955532;28;1521;-79
2022/08/28 07:56:17;;;;;;;;;;;;;;;22.36;30.39;97712.81;4956335;29;969;-78
2022/08/28 07:58:44;;;;;;;;;;;;;;;22.02;30.87;97702.19;4955706;29;971;-78
2022/08/28 08:01:10;;;;;;;;;;;;;;;22.12;30.90;97706.72;4946577;29;1635;-78
2022/08/28 08:03:36;;;;;;;;;;;;;;;22.31;30.35;97704.91;4936730;29;906;-78
2022/08/28 08:06:02;;;;;;;;;;;;;;;22.23;30.72;97698.69;4936588;29;916;-77
2022/08/28 08:08:28;;;;;;;;;;;;;;;22.12;30.84;97706.72;4906926;29;1570;-77
2022/08/28 08:11:01;;;;;;;;;;;;;;;22.05;30.78;97701.28;4922955;29;1648;-78
2022/08/28 08:13:28;;;;;;;;;;;;;;;22.15;30.74;97705.84;4993437;28;2312;-78
2022/08/28 08:15:54;;;;;;;;;;;;;;;22.17;30.67;97706.16;4996755;28;886;-78
2022/08/28 08:18:19;;;;;;;;;;;;;;;22.26;30.71;97706.25;4978839;28;1524;-78
2022/08/28 08:20:45;;;;;;;;;;;;;;;22.23;30.64;97704.34;4996985;28;1828;-78
2022/08/28 08:23:10;;;;;;;;;;;;;;;22.36;30.27;97702.28;4995198;28;1525;-78
2022/08/28 08:25:35;;;;;;;;;;;;;;;22.05;30.92;97693.56;4996624;28;1077;-78
2022/08/28 08:28:02;;;;;;;;;;;;;;;22.28;30.63;97706.63;4996367;28;949;-77
2022/08/28 08:30:28;;;;;;;;;;;;;;;22.09;31.15;97699.91;4996442;28;966;-78
2022/08/28 08:32:53;;;;;;;;;;;;;;;22.07;31.06;97710.13;4996085;28;1965;-78
2022/08/28 08:35:19;;;;;;;;;;;;;;;22.24;30.69;97710.81;4996621;28;876;-78
2022/08/28 08:37:44;;;;;;;;;;;;;;;22.35;30.70;97706.38;4996288;28;918;-78
2022/08/28 08:40:14;;;;;;;;;;;;;;;22.16;30.86;97704.59;4996937;28;858;-79
2022/08/28 08:42:42;;;;;;;;;;;;;;;22.28;30.76;97705.81;4979213;28;1989;-78
2022/08/28 08:45:09;;;;;;;;;;;;;;;22.34;30.68;97699.13;4979057;28;979;-79
2022/08/28 08:47:39;;;;;;;;;;;;;;;22.33;30.51;97697.53;4978945;28;1043;-78
2022/08/28 08:50:06;;;;;;;;;;;;;;;22.15;31.17;97702.22;4978843;28;980;-78
2022/08/28 08:52:44;;;;;;;;;;;;;;;22.44;30.55;97699.22;4978520;28;1903;-77
2022/08/28 08:55:09;;;;;;;;;;;;;;;22.21;30.80;97695.50;4996381;28;886;-78
2022/08/28 08:57:35;;;;;;;;;;;;;;;22.25;30.64;97699.00;4997691;28;971;-77
2022/08/28 09:00:01;;;;;;;;;;;;;;;22.22;31.03;97696.28;4978276;28;938;-77
2022/08/28 09:02:28;;;;;;;;;;;;;;;22.26;31.10;97697.75;4977493;28;1552;-77
2022/08/28 09:04:54;;;;;;;;;;;;;;;22.47;30.47;97689.78;4942862;28;1494;-77
2022/08/28 09:07:24;;;;;;;;;;;;;;;22.21;31.23;97681.34;4959115;29;931;-78
2022/08/28 09:09:51;;;;;;;;;;;;;;;22.29;30.93;97691.19;4958737;29;1173;-78
2022/08/28 09:12:24;;;;;;;;;;;;;;;22.27;31.15;97705.00;4926507;29;1903;-78
2022/08/28 09:15:04;;;;;;;;;;;;;;;22.28;31.22;97695.28;4993060;28;1485;-78
2022/08/28 09:17:45;;;;;;;;;;;;;;;22.41;30.65;97697.28;4977939;28;1133;-77
2022/08/28 09:20:11;;;;;;;;;;;;;;;22.41;30.96;97691.59;4977778;28;968;-78
2022/08/28 09:22:39;;;;;;;;;;;;;;;22.33;31.09;97703.19;4976255;28;1599;-78
2022/08/28 09:25:04;;;;;;;;;;;;;;;22.39;31.06;97700.56;4942412;29;1044;-77
2022/08/28 09:27:30;;;;;;;;;;;;;;;22.23;31.19;97703.56;4958735;29;948;-78
2022/08/28 09:30:15;;;;;;;;;;;;;;;22.17;31.23;97700.50;4943624;28;903;-78
2022/08/28 09:32:43;;;;;;;;;;;;;;;22.38;30.97;97698.19;4963993;28;1961;-78
2022/08/28 09:35:14;;;;;;;;;;;;;;;22.49;30.71;97698.63;4982749;28;1071;-77
2022/08/28 09:37:40;;;;;;;;;;;;;;;22.46;30.68;97688.19;4999534;28;954;-77
2022/08/28 09:40:25;;;;;;;;;;;;;;;22.33;30.82;97685.41;4977660;28;967;-79
2022/08/28 09:45:43;;;;;;;;;;;;;;;22.34;30.87;97693.44;4977580;28;970;-79
2022/08/28 09:48:21;;;;;;;;;;;;;;;22.39;30.87;97683.56;4977653;28;973;-77
2022/08/28 09:50:56;;;;;;;;;;;;;;;22.42;30.95;97681.84;4975107;28;1588;-78
2022/08/28 09:53:22;;;;;;;;;;;;;;;22.29;31.30;97685.53;4972365;28;1910;-79
2022/08/28 09:55:47;;;;;;;;;;;;;;;22.33;31.15;97683.38;4967726;28;1583;-77
2022/08/28 09:58:12;;;;;;;;;;;;;;;22.17;31.32;97682.69;4977173;28;949;-78
2022/08/28 10:00:39;;;;;;;;;;;;;;;22.28;31.00;97695.28;4961122;28;947;-78
2022/08/28 10:03:13;;;;;;;;;;;;;;;22.31;30.88;97680.19;4960569;28;1461;-78
2022/08/28 10:05:40;;;;;;;;;;;;;;;22.37;31.07;97686.06;4943506;28;1577;-77
2022/08/28 10:08:26;;;;;;;;;;;;;;;22.40;31.08;97679.47;4951752;28;1744;-78
2022/08/28 10:10:54;;;;;;;;;;;;;;;22.05;31.58;97670.91;4965895;28;1151;-78
2022/08/28 10:13:22;;;;;;;;;;;;;;;22.19;31.38;97674.56;4978281;28;1902;-77
2022/08/28 10:16:08;;;;;;;;;;;;;;;22.16;31.30;97676.25;4983585;28;2363;-78
2022/08/28 10:18:46;;;;;;;;;;;;;;;22.14;31.50;97675.91;5003152;28;1574;-78
2022/08/28 10:21:23;;;;;;;;;;;;;;;22.29;31.25;97677.00;5018672;28;976;-78
2022/08/28 10:23:51;;;;;;;;;;;;;;;22.34;30.99;97676.44;5018015;28;1058;-78
2022/08/28 10:26:23;;;;;;;;;;;;;;;22.31;30.99;97671.66;5018331;28;913;-78
2022/08/28 10:29:01;;;;;;;;;;;;;;;22.37;30.85;97680.38;5002719;28;1317;-78
2022/08/28 10:31:39;;;;;;;;;;;;;;;22.48;30.94;97674.34;4980973;28;1968;-78
2022/08/28 10:34:13;;;;;;;;;;;;;;;22.42;31.06;97676.97;4998281;28;889;-77
2022/08/28 10:36:39;;;;;;;;;;;;;;;22.25;31.25;97682.00;4997787;28;1400;-77
2022/08/28 10:39:10;;;;;;;;;;;;;;;22.28;31.23;97678.28;4981326;28;1069;-78
2022/08/28 10:41:36;;;;;;;;;;;;;;;22.44;30.81;97665.19;4979919;28;1652;-78
2022/08/28 10:44:01;;;;;;;;;;;;;;;22.22;31.27;97668.75;4995631;28;1584;-78
2022/08/28 10:46:28;;;;;;;;;;;;;;;22.42;31.09;97671.28;4980676;28;1497;-78
2022/08/28 10:49:01;;;;;;;;;;;;;;;22.33;30.76;97674.06;4980861;28;915;-78
2022/08/28 10:51:45;;;;;;;;;;;;;;;22.22;31.18;97668.75;4976838;28;1977;-78
2022/08/28 10:54:29;;;;;;;;;;;;;;;22.33;31.07;97669.19;4996200;28;1476;-78
2022/08/28 10:57:04;;;;;;;;;;;;;;;22.33;30.85;97672.03;4997719;28;935;-78
2022/08/28 10:59:29;;;;;;;;;;;;;;;22.23;31.05;97675.22;4979922;28;1465;-77
2022/08/28 11:01:55;;;;;;;;;;;;;;;22.25;31.36;97665.00;4980901;28;929;-77
2022/08/28 11:04:21;;;;;;;;;;;;;;;22.51;30.58;97673.44;4980511;28;1112;-78
2022/08/28 11:06:46;;;;;;;;;;;;;;;22.51;30.64;97657.22;4980653;28;929;-77
2022/08/28 11:09:35;;;;;;;;;;;;;;;22.43;30.85;97655.88;4997353;28;1549;-78
2022/08/28 11:12:00;;;;;;;;;;;;;;;22.41;30.85;97666.09;4937171;29;1898;-77
2022/08/28 11:14:28;;;;;;;;;;;;;;;22.53;30.53;97665.25;4937262;29;1013;-78
2022/08/28 11:16:55;;;;;;;;;;;;;;;22.32;31.00;97672.47;4921282;29;948;-78
2022/08/28 11:19:24;;;;;;;;;;;;;;;22.39;30.86;97668.59;4933386;29;1482;-78
2022/08/28 11:21:51;;;;;;;;;;;;;;;22.31;31.30;97659.53;4918089;29;935;-77
2022/08/28 11:24:19;;;;;;;;;;;;;;;22.43;30.96;97663.56;4902538;29;1267;-77
2022/08/28 11:26:46;;;;;;;;;;;;;;;22.41;30.77;97655.53;4918087;29;926;-78
2022/08/28 11:29:32;;;;;;;;;;;;;;;22.23;31.32;97647.69;4907615;29;1713;-78
2022/08/28 11:32:17;;;;;;;;;;;;;;;22.66;30.35;97657.50;4936981;29;1923;-78
2022/08/28 11:34:58;;;;;;;;;;;;;;;22.66;30.69;97645.34;4936903;29;948;-77
2022/08/28 11:37:42;;;;;;;;;;;;;;;22.47;30.81;97655.75;4937062;29;1036;-78
2022/08/28 11:40:26;;;;;;;;;;;;;;;22.35;30.83;97655.34;4920315;29;1546;-77
2022/08/28 11:42:51;;;;;;;;;;;;;;;22.36;30.86;97659.75;4920761;29;1023;-78
2022/08/28 11:45:20;;;;;;;;;;;;;;;22.40;30.89;97656.00;4920915;29;979;-78
2022/08/28 11:47:47;;;;;;;;;;;;;;;22.51;30.79;97656.41;4920979;29;1100;-78
2022/08/28 11:50:12;;;;;;;;;;;;;;;22.43;30.99;97661.53;4979063;28;1457;-77
2022/08/28 11:52:51;;;;;;;;;;;;;;;22.41;30.71;97664.03;4996929;28;1902;-78
2022/08/28 11:55:28;;;;;;;;;;;;;;;22.43;30.85;97661.53;4979207;28;1501;-78
2022/08/28 11:57:54;;;;;;;;;;;;;;;22.39;30.92;97662.94;4979871;28;1036;-77
2022/08/28 12:00:22;;;;;;;;;;;;;;;22.49;30.66;97659.72;4996946;28;934;-78
2022/08/28 12:02:53;;;;;;;;;;;;;;;22.44;30.92;97662.34;4996580;28;1027;-77
2022/08/28 12:05:34;;;;;;;;;;;;;;;22.39;30.73;97660.09;4975131;28;1152;-78
2022/08/28 12:08:02;;;;;;;;;;;;;;;22.41;30.73;97649.09;4939550;29;957;-78
2022/08/28 12:10:29;;;;;;;;;;;;;;;22.34;30.75;97650.94;4955985;29;1013;-78
2022/08/28 12:13:01;;;;;;;;;;;;;;;22.41;30.64;97646.25;4955793;29;1906;-78
2022/08/28 12:15:26;;;;;;;;;;;;;;;22.49;30.52;97648.38;4939302;28;1540;-78
2022/08/28 12:17:58;;;;;;;;;;;;;;;22.65;30.32;97649.44;4974752;28;1139;-78
2022/08/28 12:20:27;;;;;;;;;;;;;;;22.46;30.51;97657.00;4958619;28;918;-78
2022/08/28 12:22:59;;;;;;;;;;;;;;;22.56;30.70;97650.94;4974499;28;1271;-78
2022/08/28 12:25:51;;;;;;;;;;;;;;;22.45;30.81;97655.44;4958154;28;1580;-78
2022/08/28 12:28:19;;;;;;;;;;;;;;;22.30;30.81;97653.09;4897634;29;1468;-79
2022/08/28 12:30:51;;;;;;;;;;;;;;;22.54;30.33;97649.84;4898422;29;1003;-78
2022/08/28 12:33:43;;;;;;;;;;;;;;;22.47;30.72;97650.06;4881928;29;1902;-78
2022/08/28 12:36:10;;;;;;;;;;;;;;;22.39;30.77;97648.75;4828427;29;1522;-78
2022/08/28 12:38:35;;;;;;;;;;;;;;;22.43;30.92;97643.75;4842519;29;1069;-78
2022/08/28 12:41:01;;;;;;;;;;;;;;;22.50;30.40;97652.78;4827721;29;993;-79
2022/08/28 12:43:37;;;;;;;;;;;;;;;22.33;30.62;97646.50;4828013;29;956;-78
2022/08/28 12:46:05;;;;;;;;;;;;;;;22.74;30.37;97652.34;4825061;29;1542;-78
2022/08/28 12:48:46;;;;;;;;;;;;;;;22.16;30.94;97645.06;4826436;29;1550;-78
2022/08/28 12:51:12;;;;;;;;;;;;;;;22.25;30.98;97644.38;4824434;29;1059;-78
2022/08/28 12:53:47;;;;;;;;;;;;;;;22.23;31.02;97642.00;4823950;29;1908;-78
2022/08/28 12:56:14;;;;;;;;;;;;;;;22.39;30.57;97640.25;4822698;29;1495;-78
2022/08/28 12:58:40;;;;;;;;;;;;;;;22.46;30.48;97642.81;4824312;29;939;-78
2022/08/28 13:01:20;;;;;;;;;;;;;;;22.22;30.96;97633.94;4787731;30;1230;-78
2022/08/28 13:03:52;;;;;;;;;;;;;;;22.47;30.45;97644.41;4787820;30;959;-78
2022/08/28 13:06:27;;;;;;;;;;;;;;;22.17;31.25;97638.16;4812672;29;1551;-78
2022/08/28 13:08:58;;;;;;;;;;;;;;;22.02;31.28;97637.03;4826863;29;994;-77
2022/08/28 13:11:23;;;;;;;;;;;;;;;22.14;31.42;97643.97;4842350;29;1057;-78
2022/08/28 13:13:49;;;;;;;;;;;;;;;22.39;30.66;97645.94;4873972;29;1915;-78
2022/08/28 13:16:33;;;;;;;;;;;;;;;22.32;30.66;97649.78;4878308;29;1560;-78